Estación Meteorológica Peña el Pijo (Robertgarden) [ 07/19/24 13:08:31 CEST ]

Fecha Hora Presion(HPa) Temp (°C) Humedad % Rocio (°C) Viento ( m/s) Direccion Lluvia 1Hora(mm) Lluvia 24H(mm) LLuvia Total(mm)
2013-Oct-27 01:01:16 1015.100 9.3 84 6.7         231.54
2013-Oct-27 02:01:13 1015.700 8.7 86 6.5         231.54
2013-Oct-27 03:05:19 1015.900 7.8 88 6.0         231.54
2013-Oct-27 04:01:13 1015.700 7.2 88 5.4         231.54
2013-Oct-27 05:01:13 1015.600 7.1 90 5.6         231.54
2013-Oct-27 06:01:13 1016.100 6.9 90 5.4         231.54
2013-Oct-27 07:01:22 1016.500 6.8 90 5.3         231.54
2013-Oct-27 08:01:12 1017.300 6.2 90 4.7         231.54
2013-Oct-27 09:01:16 1017.700 10.2 92 8.9         231.54
2013-Oct-27 10:01:16 1017.800 15.8 73 11.0         231.54
2013-Oct-27 11:01:18 1017.600 20.1 59 11.8         231.54
2013-Oct-27 12:01:16 1017.400 23.6 47 11.6         231.54
2013-Oct-27 13:01:16 1016.400 24.9 40 10.4         231.54
2013-Oct-27 14:01:12 1015.800 26.4 32 8.3         231.54
2013-Oct-27 15:01:11 1015.600 28.4 26 6.8         231.54
2013-Oct-27 16:01:16 1015.500 27.2 32 9.0         231.54
2013-Oct-27 17:01:18 1015.500 23.9 39 9.1         231.54
2013-Oct-27 18:01:17 1015.700 20.8 45 8.4         231.54
2013-Oct-27 19:01:17 1016.300 16.9 53 7.2         231.54
2013-Oct-27 20:01:13 1016.600 13.5 64 6.8         231.54
2013-Oct-27 21:01:17 1017.200 11.5 70 6.2         231.54
2013-Oct-27 22:01:14 1017.400 9.9 75 5.7         231.54
2013-Oct-27 23:01:14 1017.000 9.3 78 5.6         231.54

Temperatura Máxima:28°    Temperatura Mínima:
Presión Máxima:1017.800 Hpa    Presión Mínima:1015.100 Hpa


Volver